Time;durP1;ratioP1;P1;durP2;ratioP2;P2;SDS_P1;SDS_P2;PMS_P1;PMS_P2;Temp;Humidity;BMP_temperature;BMP_pressure;BME280_temperature;BME280_humidity;BME280_pressure;Samples;Min_cycle;Max_cycle;Signal;HPM_P1;HPM_P2
2021/04/02 00:02:25;;;;;;;5.28;2.22;;;5.40;99.70;;;;;;5016200;28;20021;-89
2021/04/02 00:04:51;;;;;;;7.38;2.47;;;5.40;99.80;;;;;;5016126;28;20112;-88
2021/04/02 00:07:17;;;;;;;7.03;2.50;;;5.30;99.80;;;;;;5034970;28;20104;-90
2021/04/02 00:09:42;;;;;;;5.72;2.17;;;5.30;99.90;;;;;;5015910;28;20075;-90
2021/04/02 00:12:08;;;;;;;3.72;1.77;;;5.20;99.90;;;;;;5040239;28;20083;-88
2021/04/02 00:14:34;;;;;;;5.65;2.28;;;5.20;99.90;;;;;;5035602;28;20360;-89
2021/04/02 00:16:59;;;;;;;5.72;2.40;;;5.20;99.90;;;;;;5053770;28;20040;-90
2021/04/02 00:19:25;;;;;;;6.70;2.15;;;5.20;99.90;;;;;;5036515;28;20035;-90
2021/04/02 00:21:51;;;;;;;7.47;3.08;;;5.10;99.90;;;;;;5036483;28;20033;-90
2021/04/02 00:24:16;;;;;;;6.43;2.80;;;5.10;99.90;;;;;;5054375;28;20530;-89
2021/04/02 00:26:43;;;;;;;8.23;2.03;;;5.00;99.90;;;;;;5036852;28;20070;-91
2021/04/02 00:29:09;;;;;;;4.90;2.08;;;5.00;99.90;;;;;;5040551;28;20017;-89
2021/04/02 00:31:34;;;;;;;5.32;2.10;;;5.00;99.90;;;;;;5019291;28;20037;-90
2021/04/02 00:34:02;;;;;;;8.95;2.60;;;5.00;99.90;;;;;;5036371;28;20025;-90
2021/04/02 00:36:28;;;;;;;6.93;2.33;;;4.90;99.90;;;;;;5036541;28;20032;-89
2021/04/02 00:38:53;;;;;;;6.78;2.55;;;4.90;99.90;;;;;;5053667;28;20036;-90
2021/04/02 00:41:20;;;;;;;5.28;1.90;;;4.90;99.90;;;;;;5053906;28;20541;-89
2021/04/02 00:43:47;;;;;;;8.73;2.30;;;4.90;99.90;;;;;;5036279;28;20025;-89
2021/04/02 00:46:15;;;;;;;5.82;2.30;;;4.80;99.90;;;;;;5035258;28;20049;-90
2021/04/02 00:48:43;;;;;;;10.88;3.22;;;4.80;99.90;;;;;;5034942;28;20037;-89
2021/04/02 00:51:24;;;;;;;4.10;2.33;;;4.70;99.90;;;;;;5034263;28;20047;-90
2021/04/02 00:53:50;;;;;;;5.95;2.65;;;4.60;99.90;;;;;;4995118;28;20522;-90
2021/04/02 00:56:16;;;;;;;7.72;2.80;;;4.60;99.90;;;;;;4995234;28;20021;-89
2021/04/02 00:58:43;;;;;;;9.85;2.70;;;4.60;99.90;;;;;;5012164;28;20032;-89
2021/04/02 01:01:10;;;;;;;9.40;3.45;;;4.60;99.90;;;;;;5025777;28;20028;-89
2021/04/02 01:03:36;;;;;;;6.55;2.40;;;4.60;99.90;;;;;;5018415;28;20072;-90
2021/04/02 01:06:09;;;;;;;6.53;2.88;;;4.60;99.90;;;;;;5034540;28;20040;-91
2021/04/02 01:08:36;;;;;;;6.30;2.33;;;4.50;99.90;;;;;;5007280;28;20036;-90
2021/04/02 01:11:04;;;;;;;8.65;3.03;;;4.50;99.90;;;;;;5015171;28;20100;-89
2021/04/02 01:13:37;;;;;;;6.32;2.45;;;4.50;99.90;;;;;;5015501;28;20068;-90
2021/04/02 01:16:18;;;;;;;11.00;2.90;;;4.40;99.90;;;;;;5015523;28;20025;-88
2021/04/02 01:19:06;;;;;;;7.63;3.20;;;4.40;99.90;;;;;;5014692;28;20029;-88
2021/04/02 01:21:42;;;;;;;5.18;2.40;;;4.30;99.90;;;;;;5014466;28;20029;-88
2021/04/02 01:24:23;;;;;;;6.72;2.88;;;4.30;99.90;;;;;;5031328;28;20103;-90
2021/04/02 01:27:06;;;;;;;9.65;3.22;;;4.30;99.90;;;;;;5024789;28;20039;-85
2021/04/02 01:29:54;;;;;;;;;;;4.20;99.90;;;;;;5010763;28;20026;-87
2021/04/02 01:32:25;;;;;;;10.60;3.08;;;4.10;99.90;;;;;;5035375;28;19917;-85
2021/04/02 01:34:56;;;;;;;8.73;2.78;;;4.20;99.90;;;;;;5022584;28;20628;-87
2021/04/02 01:37:27;;;;;;;8.80;2.60;;;4.10;99.90;;;;;;5014836;28;20025;-87
2021/04/02 01:39:57;;;;;;;7.38;3.33;;;4.10;99.90;;;;;;5046076;28;20072;-85
2021/04/02 01:42:25;;;;;;;7.22;2.83;;;4.10;99.90;;;;;;5022657;28;20029;-89
2021/04/02 01:44:52;;;;;;;9.50;3.47;;;4.00;99.90;;;;;;5016451;28;20025;-87
2021/04/02 01:47:19;;;;;;;8.10;2.78;;;4.00;99.90;;;;;;5027896;28;20053;-88
2021/04/02 01:49:46;;;;;;;7.53;3.00;;;4.00;99.90;;;;;;5030683;28;20025;-86
2021/04/02 01:52:12;;;;;;;8.32;2.67;;;4.00;99.90;;;;;;5031382;28;20506;-88
2021/04/02 01:54:40;;;;;;;5.43;2.47;;;4.00;99.90;;;;;;5031801;28;20056;-90
2021/04/02 01:57:08;;;;;;;6.60;2.15;;;3.90;99.90;;;;;;5014250;28;20029;-89
2021/04/02 01:59:34;;;;;;;8.70;2.47;;;4.00;99.90;;;;;;5015926;28;20097;-88
2021/04/02 02:02:02;;;;;;;5.05;1.92;;;4.00;99.90;;;;;;5016523;28;20052;-89
2021/04/02 02:04:28;;;;;;;7.85;2.47;;;4.00;99.90;;;;;;5019577;28;20037;-88
2021/04/02 02:06:56;;;;;;;11.98;2.85;;;3.90;99.90;;;;;;5033183;28;20388;-89
2021/04/02 02:09:26;;;;;;;7.20;2.70;;;3.90;99.90;;;;;;5016420;28;20029;-88
2021/04/02 02:11:56;;;;;;;8.52;2.53;;;3.90;99.90;;;;;;5033903;28;20068;-87
2021/04/02 02:14:24;;;;;;;6.15;2.20;;;3.90;99.90;;;;;;5033951;28;20049;-88
2021/04/02 02:16:55;;;;;;;3.38;2.20;;;3.90;99.90;;;;;;5015955;28;20061;-88
2021/04/02 02:19:25;;;;;;;6.93;2.92;;;3.80;99.90;;;;;;5016530;28;20017;-87
2021/04/02 02:21:52;;;;;;;5.45;2.40;;;3.80;99.90;;;;;;5016276;28;20025;-89
2021/04/02 02:24:19;;;;;;;7.15;2.47;;;3.80;99.90;;;;;;5033687;28;20480;-88
2021/04/02 02:26:45;;;;;;;4.07;2.13;;;3.80;99.90;;;;;;5033640;28;20026;-87
2021/04/02 02:29:12;;;;;;;5.13;1.98;;;3.80;99.90;;;;;;5016067;28;20022;-89
2021/04/02 02:31:39;;;;;;;4.78;2.00;;;3.80;99.90;;;;;;5016061;28;20065;-91
2021/04/02 02:34:06;;;;;;;5.47;1.90;;;3.80;99.90;;;;;;5016336;28;20439;-89
2021/04/02 02:36:32;;;;;;;10.30;2.28;;;3.70;99.90;;;;;;5033505;28;20682;-88
2021/04/02 02:38:59;;;;;;;7.00;2.05;;;3.70;99.90;;;;;;5015811;28;20021;-88
2021/04/02 02:41:27;;;;;;;7.15;2.22;;;3.70;99.90;;;;;;5033698;28;20026;-88
2021/04/02 02:43:54;;;;;;;7.78;2.70;;;3.70;99.90;;;;;;5015765;28;20116;-89
2021/04/02 02:46:20;;;;;;;6.18;2.30;;;3.70;99.90;;;;;;5014975;28;20514;-90
2021/04/02 02:48:48;;;;;;;10.02;2.35;;;3.60;99.90;;;;;;5032986;28;20030;-88
2021/04/02 02:51:14;;;;;;;4.43;1.75;;;3.60;99.90;;;;;;5015897;28;20017;-88
2021/04/02 02:53:41;;;;;;;6.72;1.77;;;3.60;99.90;;;;;;5033802;28;20030;-88
2021/04/02 02:56:09;;;;;;;5.90;2.35;;;3.60;99.90;;;;;;5015987;28;20021;-87
2021/04/02 02:58:38;;;;;;;5.28;1.90;;;3.60;99.90;;;;;;5033445;28;20387;-87
2021/04/02 03:01:07;;;;;;;7.85;2.20;;;3.60;99.90;;;;;;5033399;28;20044;-88
2021/04/02 03:03:33;;;;;;;7.10;2.35;;;3.60;99.90;;;;;;5016145;28;20515;-88
2021/04/02 03:06:00;;;;;;;4.85;2.03;;;3.50;99.90;;;;;;5015786;28;20025;-87
2021/04/02 03:08:31;;;;;;;4.85;1.80;;;3.50;99.90;;;;;;5015818;28;20018;-87
2021/04/02 03:10:58;;;;;;;5.30;1.98;;;3.50;99.90;;;;;;5015830;28;20492;-86
2021/04/02 03:13:24;;;;;;;6.32;1.90;;;3.50;99.90;;;;;;5015532;28;20045;-88
2021/04/02 03:15:55;;;;;;;5.63;2.17;;;3.50;99.90;;;;;;5002775;28;20032;-88
2021/04/02 03:18:21;;;;;;;3.90;1.80;;;3.50;99.90;;;;;;5037259;28;20032;-87
2021/04/02 03:20:49;;;;;;;6.55;2.20;;;3.40;99.90;;;;;;5037322;28;20021;-87
2021/04/02 03:23:16;;;;;;;9.20;2.70;;;3.40;99.90;;;;;;5019690;28;20375;-87
2021/04/02 03:25:43;;;;;;;6.45;1.98;;;3.40;99.90;;;;;;5019580;28;20021;-88
2021/04/02 03:28:11;;;;;;;7.57;1.85;;;3.40;99.90;;;;;;5019430;28;20390;-87
2021/04/02 03:30:37;;;;;;;7.85;2.20;;;3.40;99.90;;;;;;5019415;28;20018;-88
2021/04/02 03:33:09;;;;;;;6.13;2.10;;;3.40;99.90;;;;;;5019322;28;20167;-87
2021/04/02 03:35:36;;;;;;;6.30;2.17;;;3.40;99.90;;;;;;5019508;28;20101;-89
2021/04/02 03:38:03;;;;;;;5.45;1.90;;;3.40;99.90;;;;;;5019132;28;20554;-89
2021/04/02 03:40:31;;;;;;;5.78;2.28;;;3.30;99.90;;;;;;5019127;28;20057;-88
2021/04/02 03:42:59;;;;;;;4.30;1.60;;;3.30;99.90;;;;;;5019050;28;20026;-89
2021/04/02 03:45:27;;;;;;;4.25;1.77;;;3.40;99.90;;;;;;5018712;28;20070;-88
2021/04/02 03:47:54;;;;;;;6.18;1.90;;;3.40;99.90;;;;;;5018510;28;20048;-87
2021/04/02 03:50:22;;;;;;;3.10;1.45;;;3.40;99.90;;;;;;5018847;28;20087;-87
2021/04/02 03:53:52;;;;;;;4.72;1.80;;;3.40;99.90;;;;;;5035901;28;20037;-88
2021/04/02 03:56:25;;;;;;;6.00;1.73;;;3.30;99.90;;;;;;4956141;28;20597;-87
2021/04/02 03:58:52;;;;;;;7.30;2.00;;;3.40;99.90;;;;;;4939676;29;20061;-88
2021/04/02 04:01:23;;;;;;;4.72;2.08;;;3.40;99.90;;;;;;4981336;28;20033;-88
2021/04/02 04:03:52;;;;;;;8.48;2.75;;;3.30;99.90;;;;;;5018633;28;20026;-89
2021/04/02 04:06:20;;;;;;;5.90;1.80;;;3.40;99.90;;;;;;5018899;28;20168;-88
2021/04/02 04:08:48;;;;;;;6.63;2.38;;;3.40;99.90;;;;;;5018611;28;20502;-88
2021/04/02 04:11:15;;;;;;;7.35;2.50;;;3.40;99.90;;;;;;5018433;28;20391;-88
2021/04/02 04:13:44;;;;;;;6.90;2.35;;;3.40;99.90;;;;;;5018171;28;20064;-89
2021/04/02 04:16:13;;;;;;;6.20;2.80;;;3.40;99.90;;;;;;5018244;28;20029;-87
2021/04/02 04:18:41;;;;;;;9.13;3.05;;;3.50;99.90;;;;;;5018067;28;20114;-89
2021/04/02 04:21:07;;;;;;;6.32;2.25;;;3.50;99.90;;;;;;5035798;28;20471;-89
2021/04/02 04:23:36;;;;;;;8.15;2.50;;;3.60;99.90;;;;;;5017596;28;20025;-89
2021/04/02 04:26:02;;;;;;;9.27;2.45;;;3.60;99.90;;;;;;5017665;28;20022;-88
2021/04/02 04:28:28;;;;;;;4.75;2.10;;;3.60;99.90;;;;;;5017924;28;20033;-87
2021/04/02 04:30:59;;;;;;;7.15;2.40;;;3.60;99.90;;;;;;5035279;28;20036;-89
2021/04/02 04:33:26;;;;;;;5.97;2.20;;;3.60;99.90;;;;;;5035792;28;20120;-88
2021/04/02 04:35:54;;;;;;;4.80;1.88;;;3.50;99.90;;;;;;5018119;28;20022;-88
2021/04/02 04:38:22;;;;;;;7.88;2.15;;;3.50;99.90;;;;;;5036290;28;20037;-90
2021/04/02 04:40:49;;;;;;;6.78;2.40;;;3.50;99.90;;;;;;5035958;28;20375;-89
2021/04/02 04:43:17;;;;;;;5.10;1.98;;;3.50;99.90;;;;;;5035636;28;20097;-88
2021/04/02 04:45:43;;;;;;;6.55;2.45;;;3.50;99.90;;;;;;5035253;28;20022;-88
2021/04/02 04:48:09;;;;;;;6.72;1.60;;;3.50;99.90;;;;;;5017552;28;20508;-89
2021/04/02 04:50:35;;;;;;;4.20;2.10;;;3.50;99.90;;;;;;5035910;28;20487;-88
2021/04/02 04:53:21;;;;;;;4.43;1.95;;;3.50;99.90;;;;;;5017563;28;20063;-86
2021/04/02 04:55:48;;;;;;;9.38;2.22;;;3.50;99.90;;;;;;5017290;28;20025;-86
2021/04/02 04:58:17;;;;;;;5.68;2.35;;;3.50;99.90;;;;;;5017405;28;20022;-87
2021/04/02 05:00:44;;;;;;;4.93;2.00;;;3.50;99.90;;;;;;5035091;28;20021;-88
2021/04/02 05:03:16;;;;;;;6.63;2.10;;;3.50;99.90;;;;;;5019266;28;20036;-88
2021/04/02 05:05:44;;;;;;;6.75;2.03;;;3.50;99.90;;;;;;5016682;28;20017;-87
2021/04/02 05:08:13;;;;;;;6.88;1.98;;;3.50;99.90;;;;;;5017198;28;20474;-87
2021/04/02 05:10:40;;;;;;;6.45;1.80;;;3.50;99.90;;;;;;5034899;28;20029;-87
2021/04/02 05:13:08;;;;;;;4.63;1.77;;;3.50;99.90;;;;;;5034557;28;20096;-87
2021/04/02 05:15:35;;;;;;;6.32;3.00;;;3.50;99.90;;;;;;5017159;28;20032;-87
2021/04/02 05:18:02;;;;;;;7.63;2.50;;;3.60;99.90;;;;;;5016807;28;20052;-88
2021/04/02 05:20:39;;;;;;;7.95;2.42;;;3.50;99.90;;;;;;5034581;28;20036;-86
2021/04/02 05:23:04;;;;;;;5.00;2.22;;;3.50;99.90;;;;;;5016781;28;20028;-87
2021/04/02 05:25:30;;;;;;;6.72;2.42;;;3.50;99.90;;;;;;5035000;28;20025;-87
2021/04/02 05:27:56;;;;;;;7.40;2.00;;;3.60;99.90;;;;;;5034868;28;20456;-86
2021/04/02 05:30:22;;;;;;;6.57;1.55;;;3.50;99.90;;;;;;5034932;28;20021;-87
2021/04/02 05:32:47;;;;;;;5.30;1.77;;;3.50;99.90;;;;;;5034215;28;20052;-87
2021/04/02 05:35:13;;;;;;;4.88;1.75;;;3.60;99.90;;;;;;5017032;28;20375;-86
2021/04/02 05:37:39;;;;;;;6.07;1.30;;;3.60;99.90;;;;;;5016378;28;20032;-88
2021/04/02 05:40:05;;;;;;;8.32;2.13;;;3.60;99.90;;;;;;5016686;28;20040;-87
2021/04/02 05:42:35;;;;;;;7.18;1.63;;;3.60;99.90;;;;;;5033979;28;20112;-88
2021/04/02 05:45:02;;;;;;;9.73;2.15;;;3.60;99.90;;;;;;5016490;28;20025;-87
2021/04/02 05:47:30;;;;;;;6.10;2.08;;;3.60;99.90;;;;;;5034239;28;20128;-87
2021/04/02 05:49:59;;;;;;;4.43;2.08;;;3.60;99.90;;;;;;5034281;28;20041;-86
2021/04/02 05:52:27;;;;;;;9.07;2.38;;;3.60;99.90;;;;;;5034157;28;20025;-86
2021/04/02 05:54:57;;;;;;;8.18;2.22;;;3.60;99.90;;;;;;5016498;28;20024;-88
2021/04/02 05:57:24;;;;;;;6.53;2.50;;;3.70;99.90;;;;;;5016521;28;20028;-86
2021/04/02 05:59:52;;;;;;;5.28;2.15;;;3.70;99.90;;;;;;5016120;28;20026;-87
2021/04/02 06:02:18;;;;;;;4.65;1.80;;;3.70;99.90;;;;;;5016486;28;20026;-87
2021/04/02 06:04:44;;;;;;;4.93;1.75;;;3.80;99.90;;;;;;5033157;28;20384;-86
2021/04/02 06:07:10;;;;;;;7.53;1.65;;;3.80;99.90;;;;;;5015630;28;20031;-87
2021/04/02 06:09:35;;;;;;;9.57;2.67;;;3.80;99.90;;;;;;5033217;28;20025;-86
2021/04/02 06:12:01;;;;;;;5.55;1.95;;;3.90;99.90;;;;;;5014212;28;20059;-86
2021/04/02 06:14:27;;;;;;;5.25;2.15;;;3.90;99.90;;;;;;5028931;28;20399;-87
2021/04/02 06:16:53;;;;;;;6.40;2.28;;;4.00;99.90;;;;;;5016274;28;20141;-85
2021/04/02 06:19:20;;;;;;;5.05;2.15;;;4.00;99.90;;;;;;5013693;28;20543;-88
2021/04/02 06:21:45;;;;;;;4.68;1.88;;;4.00;99.90;;;;;;5015691;28;20087;-86
2021/04/02 06:24:13;;;;;;;3.28;1.45;;;4.10;99.90;;;;;;5016902;28;20192;-87
2021/04/02 06:26:39;;;;;;;6.40;1.77;;;4.10;99.90;;;;;;5049169;28;20033;-87
2021/04/02 06:29:04;;;;;;;5.95;1.70;;;4.20;99.90;;;;;;5022986;28;20021;-87
2021/04/02 06:31:34;;;;;;;6.97;2.40;;;4.20;99.90;;;;;;5041904;28;20648;-88
2021/04/02 06:34:05;;;;;;;7.07;1.92;;;4.30;99.90;;;;;;5030849;28;20095;-87
2021/04/02 06:36:31;;;;;;;5.68;1.83;;;4.30;99.90;;;;;;5018678;28;20048;-87
2021/04/02 06:38:59;;;;;;;9.05;2.50;;;4.40;99.90;;;;;;5046943;28;20038;-86
2021/04/02 06:41:31;;;;;;;7.07;2.30;;;4.40;99.90;;;;;;5031425;28;20072;-86
2021/04/02 06:43:59;;;;;;;6.03;1.83;;;4.50;99.90;;;;;;5033379;28;20470;-87
2021/04/02 06:46:32;;;;;;;9.25;2.28;;;4.50;99.90;;;;;;5015343;28;20021;-87
2021/04/02 06:49:19;;;;;;;;;;;4.60;99.90;;;;;;5035884;28;20065;-86
2021/04/02 06:51:50;;;;;;;6.35;2.13;;;4.60;99.90;;;;;;5024459;28;19959;-86
2021/04/02 06:54:18;;;;;;;6.55;2.17;;;4.70;99.90;;;;;;5048402;28;20051;-87
2021/04/02 06:57:05;;;;;;;5.80;2.03;;;4.80;99.90;;;;;;5019427;28;20018;-86
2021/04/02 06:59:35;;;;;;;7.28;1.80;;;4.80;99.90;;;;;;5023801;28;20463;-85
2021/04/02 07:02:04;;;;;;;6.38;2.20;;;4.90;99.90;;;;;;5035843;28;20032;-85
2021/04/02 07:04:32;;;;;;;9.32;3.15;;;4.90;99.90;;;;;;5025571;28;20013;-86
2021/04/02 07:06:59;;;;;;;6.07;1.90;;;5.00;99.90;;;;;;5056849;28;20033;-87
2021/04/02 07:09:27;;;;;;;8.73;2.28;;;5.00;99.90;;;;;;5024905;28;20022;-86
2021/04/02 07:11:59;;;;;;;8.98;2.47;;;5.10;99.90;;;;;;5036802;28;20465;-87
2021/04/02 07:14:26;;;;;;;7.40;2.35;;;5.20;99.90;;;;;;5033217;28;20029;-86
2021/04/02 07:16:52;;;;;;;9.20;2.10;;;5.20;99.90;;;;;;5046348;28;20021;-85
2021/04/02 07:19:18;;;;;;;9.38;2.42;;;5.30;99.90;;;;;;5025729;28;20157;-86
2021/04/02 07:21:44;;;;;;;12.10;2.38;;;5.40;99.90;;;;;;5037753;28;20106;-87
2021/04/02 07:24:11;;;;;;;12.90;2.55;;;5.50;99.90;;;;;;5022949;28;20053;-87
2021/04/02 07:26:37;;;;;;;13.05;3.47;;;5.60;99.90;;;;;;5038864;28;20021;-86
2021/04/02 07:29:04;;;;;;;10.85;2.17;;;5.70;99.90;;;;;;5045393;28;20029;-87
2021/04/02 07:31:30;;;;;;;10.73;2.47;;;6.00;99.90;;;;;;5039078;28;20025;-87
2021/04/02 07:33:56;;;;;;;7.47;2.10;;;6.10;99.90;;;;;;5021500;28;20029;-86
2021/04/02 07:36:24;;;;;;;10.25;1.70;;;6.20;99.90;;;;;;5056651;28;20021;-85
2021/04/02 07:38:52;;;;;;;6.72;1.50;;;6.30;99.90;;;;;;5038863;28;20040;-87
2021/04/02 07:41:19;;;;;;;10.88;2.05;;;6.40;99.90;;;;;;5039078;28;20020;-87
2021/04/02 07:43:55;;;;;;;6.95;2.03;;;6.50;99.90;;;;;;5021768;28;20061;-87
2021/04/02 07:46:28;;;;;;;6.25;1.80;;;6.60;99.90;;;;;;5038067;28;20040;-87
2021/04/02 07:49:08;;;;;;;5.75;1.70;;;6.70;99.90;;;;;;5056155;28;20113;-86
2021/04/02 07:51:40;;;;;;;6.18;1.70;;;6.80;99.90;;;;;;5038381;28;20566;-88
2021/04/02 07:54:18;;;;;;;8.13;1.90;;;6.90;99.90;;;;;;5038505;28;20032;-87
2021/04/02 07:56:46;;;;;;;7.40;2.42;;;7.10;99.90;;;;;;5038375;28;20017;-87
2021/04/02 07:59:11;;;;;;;5.35;1.55;;;7.30;99.90;;;;;;5055171;28;20029;-87
2021/04/02 08:01:37;;;;;;;7.18;1.80;;;7.20;99.50;;;;;;5021824;28;20510;-86
2021/04/02 08:04:04;;;;;;;5.30;1.40;;;7.30;99.40;;;;;;5018114;28;20029;-86
2021/04/02 08:06:35;;;;;;;10.18;2.47;;;7.30;99.40;;;;;;5018437;28;20040;-86
2021/04/02 08:09:02;;;;;;;7.10;2.00;;;7.20;99.00;;;;;;5035832;28;20100;-87
2021/04/02 08:11:34;;;;;;;7.77;1.87;;;7.20;99.00;;;;;;5017841;28;20026;-87
2021/04/02 08:14:11;;;;;;;6.32;1.98;;;7.20;98.70;;;;;;5035890;28;20121;-87
2021/04/02 08:16:40;;;;;;;9.38;1.80;;;7.20;98.70;;;;;;5043186;28;20032;-88
2021/04/02 08:19:08;;;;;;;7.50;1.85;;;7.20;98.80;;;;;;5026608;28;20029;-88
2021/04/02 08:21:36;;;;;;;5.03;1.60;;;7.40;98.60;;;;;;5018980;28;20379;-88
2021/04/02 08:24:09;;;;;;;11.43;2.42;;;7.60;98.30;;;;;;5036900;28;20097;-90
2021/04/02 08:29:13;;;;;;;5.85;1.75;;;7.80;97.40;;;;;;4307013;26;20510;-84
2021/04/02 08:31:42;;;;;;;6.53;2.10;;;7.80;97.50;;;;;;5025851;28;20037;-87
2021/04/02 08:34:08;;;;;;;4.70;2.10;;;7.70;97.00;;;;;;5005333;28;20100;-89
2021/04/02 08:36:34;;;;;;;5.13;1.70;;;7.60;96.90;;;;;;5037422;28;20468;-85
2021/04/02 08:41:35;;;;;;;8.77;2.47;;;7.70;97.20;;;;;;5142214;22;20062;-88
2021/04/02 08:44:02;;;;;;;5.88;1.70;;;7.80;96.60;;;;;;5024063;28;20034;-88
2021/04/02 08:46:45;;;;;;;6.68;1.85;;;8.00;96.40;;;;;;5040651;28;20518;-83
2021/04/02 08:49:14;;;;;;;4.82;1.55;;;8.10;96.40;;;;;;5040277;28;20040;-87
2021/04/02 08:51:47;;;;;;;6.45;1.83;;;8.30;96.50;;;;;;5040144;28;20049;-83
2021/04/02 08:54:17;;;;;;;5.45;1.70;;;8.40;96.40;;;;;;5010209;28;20120;-84
2021/04/02 08:56:43;;;;;;;6.95;2.10;;;8.50;96.20;;;;;;5029110;28;20025;-84
2021/04/02 08:59:11;;;;;;;9.07;2.00;;;8.50;96.10;;;;;;5033391;28;20025;-83
2021/04/02 09:01:45;;;;;;;6.93;2.08;;;8.50;96.10;;;;;;5010431;28;20084;-88
2021/04/02 09:04:12;;;;;;;6.05;1.50;;;8.40;95.90;;;;;;5041504;28;20033;-83
2021/04/02 09:06:40;;;;;;;7.07;1.90;;;8.40;95.70;;;;;;5068424;23;20511;-85
2021/04/02 09:09:14;;;;;;;6.28;1.70;;;8.40;95.80;;;;;;5013276;28;20076;-86
2021/04/02 09:11:41;;;;;;;8.18;2.42;;;8.40;95.60;;;;;;5013328;28;20531;-87
2021/04/02 09:14:10;;;;;;;7.32;2.22;;;8.40;95.30;;;;;;5014563;28;20034;-87
2021/04/02 09:16:38;;;;;;;5.35;1.98;;;8.30;95.40;;;;;;5014806;28;20021;-85
2021/04/02 09:19:06;;;;;;;9.38;2.10;;;8.20;95.40;;;;;;5032937;28;20030;-86
2021/04/02 09:21:33;;;;;;;8.20;1.70;;;8.20;95.40;;;;;;5015645;28;20475;-84
2021/04/02 09:24:04;;;;;;;6.45;1.83;;;8.10;95.40;;;;;;5017123;28;20021;-89
2021/04/02 09:26:36;;;;;;;8.18;1.88;;;8.00;95.30;;;;;;5001808;28;20022;-87
2021/04/02 09:29:10;;;;;;;8.90;2.00;;;7.90;95.20;;;;;;5043652;23;20046;-82
2021/04/02 09:31:37;;;;;;;6.15;1.45;;;8.00;95.50;;;;;;5088559;23;20046;-88
2021/04/02 09:39:27;;;;;;;4.15;1.48;;;8.10;95.20;;;;;;5026960;22;20116;-83
2021/04/02 09:42:03;;;;;;;5.07;1.67;;;8.20;95.10;;;;;;5062353;23;20053;-83
2021/04/02 09:44:36;;;;;;;8.15;2.35;;;8.40;95.10;;;;;;5046881;28;20033;-83
2021/04/02 09:47:13;;;;;;;5.80;1.80;;;8.50;94.60;;;;;;5059313;23;20052;-82
2021/04/02 09:49:41;;;;;;;5.28;1.48;;;8.50;94.70;;;;;;5077662;28;20028;-86
2021/04/02 09:52:07;;;;;;;6.60;2.10;;;8.60;94.70;;;;;;5064048;28;20155;-83
2021/04/02 09:54:45;;;;;;;6.43;2.28;;;8.60;94.50;;;;;;5059280;22;20112;-82
2021/04/02 09:57:12;;;;;;;6.15;2.17;;;8.70;94.30;;;;;;5062886;23;20109;-87
2021/04/02 09:59:38;;;;;;;8.30;3.00;;;8.90;94.30;;;;;;5033224;28;20506;-91
2021/04/02 10:02:05;;;;;;;5.93;2.40;;;9.00;93.70;;;;;;5037287;28;20092;-86
2021/04/02 10:04:31;;;;;;;6.32;2.40;;;9.00;93.70;;;;;;5022042;28;20037;-88
2021/04/02 10:06:57;;;;;;;10.80;3.30;;;9.10;93.90;;;;;;5014669;28;20033;-86
2021/04/02 10:09:24;;;;;;;5.47;2.22;;;9.10;93.50;;;;;;5031677;28;20021;-87
2021/04/02 10:11:50;;;;;;;6.65;2.28;;;9.10;93.50;;;;;;5033440;28;20025;-88
2021/04/02 10:14:18;;;;;;;7.97;2.42;;;9.10;93.30;;;;;;5033653;28;20674;-91
2021/04/02 10:16:45;;;;;;;6.53;1.83;;;9.10;92.90;;;;;;5016841;28;20121;-87
2021/04/02 10:19:12;;;;;;;8.13;2.00;;;9.10;93.20;;;;;;5033528;28;20057;-90
2021/04/02 10:21:38;;;;;;;5.40;1.80;;;9.10;93.00;;;;;;5032246;28;20116;-90
2021/04/02 10:24:05;;;;;;;11.13;2.45;;;9.30;92.80;;;;;;5034995;28;20121;-89
2021/04/02 10:26:30;;;;;;;10.75;1.83;;;9.40;92.60;;;;;;5034952;28;20048;-90
2021/04/02 10:28:56;;;;;;;6.28;1.95;;;10.50;92.40;;;;;;5031639;28;20489;-89
2021/04/02 10:31:22;;;;;;;3.97;1.67;;;11.10;91.70;;;;;;5015378;28;20545;-90
2021/04/02 10:33:49;;;;;;;6.93;1.40;;;11.30;91.40;;;;;;5030015;28;20068;-88
2021/04/02 10:36:15;;;;;;;4.22;1.60;;;11.50;91.00;;;;;;5051610;28;20108;-89
2021/04/02 10:38:41;;;;;;;7.93;2.05;;;11.50;90.70;;;;;;5036161;28;20029;-90
2021/04/02 10:41:07;;;;;;;5.25;1.88;;;11.30;90.00;;;;;;5055513;28;20029;-89
2021/04/02 10:43:33;;;;;;;5.93;1.92;;;12.00;90.40;;;;;;5041912;28;20047;-88
2021/04/02 10:48:36;;;;;;;6.22;2.22;;;13.40;86.40;;;;;;5062253;22;20053;-85
2021/04/02 10:52:07;;;;;;;;;;;;;;;;;;;;;
2021/04/02 10:54:33;;;;;;;6.13;1.90;;;13.20;85.50;;;;;;5057696;28;20228;-85
2021/04/02 10:56:59;;;;;;;8.27;2.15;;;13.20;85.00;;;;;;5027636;28;20049;-91
2021/04/02 10:59:25;;;;;;;6.00;1.60;;;13.40;83.40;;;;;;5062343;28;20044;-85
2021/04/02 11:02:16;;;;;;;8.18;1.90;;;13.70;83.60;;;;;;5071519;22;20124;-85
2021/04/02 11:04:41;;;;;;;7.40;1.63;;;14.20;80.10;;;;;;5020764;28;20494;-89
2021/04/02 11:07:07;;;;;;;6.78;1.42;;;13.60;80.80;;;;;;5017862;28;20032;-87
2021/04/02 11:09:33;;;;;;;6.20;1.20;;;13.00;80.20;;;;;;5030494;28;20506;-87
2021/04/02 11:11:59;;;;;;;5.32;1.02;;;13.50;82.40;;;;;;5016050;28;20022;-90
2021/04/02 11:14:25;;;;;;;4.35;1.10;;;14.10;80.40;;;;;;5032882;28;20083;-88
2021/04/02 11:16:50;;;;;;;6.20;1.23;;;14.00;79.20;;;;;;5032086;28;20061;-87
2021/04/02 11:19:16;;;;;;;7.40;1.40;;;13.70;79.90;;;;;;5032150;28;20057;-87
2021/04/02 11:21:41;;;;;;;4.57;1.35;;;13.20;79.00;;;;;;5014791;28;20022;-88
2021/04/02 11:24:07;;;;;;;7.13;1.25;;;12.70;80.00;;;;;;5032771;28;20080;-89
2021/04/02 11:26:33;;;;;;;7.63;1.63;;;12.70;80.70;;;;;;5014393;28;20049;-88
2021/04/02 11:28:58;;;;;;;8.77;1.73;;;12.40;79.90;;;;;;5032049;28;20026;-90
2021/04/02 11:31:24;;;;;;;6.72;1.25;;;12.30;81.00;;;;;;5014045;28;20068;-88
2021/04/02 11:33:50;;;;;;;4.70;1.08;;;12.20;80.80;;;;;;5031545;28;20087;-88
2021/04/02 11:36:16;;;;;;;8.77;1.95;;;12.30;81.20;;;;;;5016350;28;20093;-88
2021/04/02 11:38:41;;;;;;;5.60;2.00;;;12.20;80.60;;;;;;5025533;28;20051;-90
2021/04/02 11:41:07;;;;;;;4.90;1.42;;;12.00;80.50;;;;;;5030095;28;20025;-88
2021/04/02 11:43:33;;;;;;;5.68;1.35;;;12.00;81.30;;;;;;5017501;28;20014;-90
2021/04/02 11:45:59;;;;;;;5.78;1.63;;;12.20;81.20;;;;;;5034508;28;20033;-88
2021/04/02 11:48:25;;;;;;;4.72;1.40;;;12.40;80.50;;;;;;5034573;28;20029;-88
2021/04/02 11:50:50;;;;;;;5.30;1.40;;;12.50;80.10;;;;;;5016452;28;20025;-88
2021/04/02 11:53:16;;;;;;;5.97;1.35;;;12.50;80.20;;;;;;5016752;28;20041;-85
2021/04/02 11:55:41;;;;;;;5.32;1.30;;;12.50;80.50;;;;;;5017520;28;20109;-87
2021/04/02 11:58:07;;;;;;;6.68;1.48;;;13.20;80.30;;;;;;5016841;28;20029;-88
2021/04/02 12:00:34;;;;;;;6.45;1.60;;;14.40;78.80;;;;;;5016519;28;20025;-89
2021/04/02 12:03:00;;;;;;;7.00;1.50;;;15.60;76.40;;;;;;5026785;28;20084;-89
2021/04/02 12:05:25;;;;;;;12.45;2.05;;;16.50;74.50;;;;;;5016863;28;20033;-87
2021/04/02 12:07:52;;;;;;;4.78;1.08;;;16.30;72.00;;;;;;5017960;28;20017;-87
2021/04/02 12:10:18;;;;;;;6.72;1.70;;;15.60;71.90;;;;;;5041766;28;20026;-87
2021/04/02 12:12:44;;;;;;;8.30;1.58;;;14.80;73.00;;;;;;5033689;28;20030;-87
2021/04/02 12:15:11;;;;;;;4.03;1.20;;;14.30;73.90;;;;;;5015939;28;20129;-86
2021/04/02 12:17:37;;;;;;;4.57;1.60;;;13.70;75.10;;;;;;5015962;28;20499;-87
2021/04/02 12:20:15;;;;;;;7.15;1.67;;;13.20;75.10;;;;;;5032739;28;20092;-88
2021/04/02 12:22:41;;;;;;;6.40;1.60;;;13.00;75.50;;;;;;5011467;28;20025;-87
2021/04/02 12:25:09;;;;;;;7.88;1.23;;;12.90;76.10;;;;;;5013950;28;20079;-86
2021/04/02 12:27:35;;;;;;;9.70;2.28;;;12.70;77.10;;;;;;5012220;28;20061;-87
2021/04/02 12:30:00;;;;;;;10.13;1.60;;;12.60;77.40;;;;;;5024969;28;20464;-87
2021/04/02 12:32:26;;;;;;;7.45;1.42;;;12.40;77.40;;;;;;5007294;28;20045;-86
2021/04/02 12:34:52;;;;;;;6.68;1.60;;;12.20;78.60;;;;;;5019263;28;20645;-85
2021/04/02 12:37:17;;;;;;;4.65;1.70;;;12.20;79.50;;;;;;5016641;28;20040;-86
2021/04/02 12:39:43;;;;;;;8.70;1.50;;;12.30;79.10;;;;;;5026767;28;20013;-84
2021/04/02 12:42:09;;;;;;;8.30;1.70;;;12.30;79.40;;;;;;5015691;28;20026;-90
2021/04/02 12:44:35;;;;;;;5.47;1.30;;;12.20;78.70;;;;;;5018928;28;20048;-87
2021/04/02 12:47:01;;;;;;;7.72;1.60;;;12.10;79.90;;;;;;5045468;28;20025;-85
2021/04/02 12:49:26;;;;;;;8.48;1.73;;;11.90;79.30;;;;;;5012832;28;20573;-87
2021/04/02 12:51:52;;;;;;;4.05;1.13;;;11.80;79.60;;;;;;5009358;28;20025;-82
2021/04/02 12:54:18;;;;;;;7.57;1.95;;;11.70;80.20;;;;;;5015453;28;20021;-84
2021/04/02 12:56:44;;;;;;;5.93;2.05;;;11.70;80.40;;;;;;5015839;28;20033;-83
2021/04/02 12:59:10;;;;;;;8.05;1.65;;;11.70;80.70;;;;;;5036833;28;20557;-83
2021/04/02 13:01:36;;;;;;;6.07;1.45;;;11.50;81.00;;;;;;5023422;28;20064;-83
2021/04/02 13:04:02;;;;;;;9.57;1.60;;;11.30;81.60;;;;;;5031113;28;20025;-82
2021/04/02 13:06:28;;;;;;;7.00;2.00;;;11.20;82.40;;;;;;5018089;28;20549;-82
2021/04/02 13:08:53;;;;;;;6.25;1.58;;;11.10;82.70;;;;;;5021005;28;20021;-81
2021/04/02 13:11:21;;;;;;;8.02;1.50;;;11.00;83.20;;;;;;5013515;28;20041;-86
2021/04/02 13:13:47;;;;;;;4.70;1.27;;;10.80;83.60;;;;;;5007139;28;20037;-86
2021/04/02 13:16:13;;;;;;;10.32;1.75;;;10.80;84.10;;;;;;5021565;28;20111;-83